sensor_id;sensor_type;location;lat;lon;timestamp;P1;durP1;ratioP1;P2;durP2;ratioP2
78148;SDS011;67396;42.664;23.382;2023-04-28T00:00:49;7.85;;;3.47;;
78148;SDS011;67396;42.664;23.382;2023-04-28T00:03:15;7.82;;;4.15;;
78148;SDS011;67396;42.664;23.382;2023-04-28T00:05:41;7.55;;;3.78;;
78148;SDS011;67396;42.664;23.382;2023-04-28T00:08:06;8.32;;;3.67;;
78148;SDS011;67396;42.664;23.382;2023-04-28T00:10:32;4.97;;;3.00;;
78148;SDS011;67396;42.664;23.382;2023-04-28T00:12:58;6.95;;;3.53;;
78148;SDS011;67396;42.664;23.382;2023-04-28T00:15:24;6.05;;;2.88;;
78148;SDS011;67396;42.664;23.382;2023-04-28T00:17:50;7.45;;;4.07;;
78148;SDS011;67396;42.664;23.382;2023-04-28T00:20:15;6.35;;;3.35;;
78148;SDS011;67396;42.664;23.382;2023-04-28T00:22:41;5.07;;;3.15;;
78148;SDS011;67396;42.664;23.382;2023-04-28T00:25:06;12.48;;;3.47;;
78148;SDS011;67396;42.664;23.382;2023-04-28T00:27:32;6.40;;;3.05;;
78148;SDS011;67396;42.664;23.382;2023-04-28T00:29:58;6.15;;;3.50;;
78148;SDS011;67396;42.664;23.382;2023-04-28T00:32:24;8.32;;;4.00;;
78148;SDS011;67396;42.664;23.382;2023-04-28T00:34:50;6.63;;;3.17;;
78148;SDS011;67396;42.664;23.382;2023-04-28T00:37:15;6.25;;;3.65;;
78148;SDS011;67396;42.664;23.382;2023-04-28T00:39:41;6.43;;;3.47;;
78148;SDS011;67396;42.664;23.382;2023-04-28T00:42:09;6.20;;;3.30;;
78148;SDS011;67396;42.664;23.382;2023-04-28T00:44:34;6.90;;;3.45;;
78148;SDS011;67396;42.664;23.382;2023-04-28T00:47:00;8.40;;;3.67;;
78148;SDS011;67396;42.664;23.382;2023-04-28T00:49:25;8.30;;;3.63;;
78148;SDS011;67396;42.664;23.382;2023-04-28T00:51:51;7.47;;;3.28;;
78148;SDS011;67396;42.664;23.382;2023-04-28T00:54:16;5.57;;;3.20;;
78148;SDS011;67396;42.664;23.382;2023-04-28T00:56:42;10.55;;;3.58;;
78148;SDS011;67396;42.664;23.382;2023-04-28T00:59:09;5.28;;;2.95;;
78148;SDS011;67396;42.664;23.382;2023-04-28T01:01:34;9.60;;;3.35;;
78148;SDS011;67396;42.664;23.382;2023-04-28T01:04:00;8.50;;;3.50;;
78148;SDS011;67396;42.664;23.382;2023-04-28T01:06:26;4.85;;;3.42;;
78148;SDS011;67396;42.664;23.382;2023-04-28T01:08:53;7.88;;;3.63;;
78148;SDS011;67396;42.664;23.382;2023-04-28T01:11:20;8.05;;;3.75;;
78148;SDS011;67396;42.664;23.382;2023-04-28T01:13:45;6.03;;;3.22;;
78148;SDS011;67396;42.664;23.382;2023-04-28T01:16:11;7.22;;;3.30;;
78148;SDS011;67396;42.664;23.382;2023-04-28T01:18:36;6.63;;;3.47;;
78148;SDS011;67396;42.664;23.382;2023-04-28T01:21:02;7.60;;;3.35;;
78148;SDS011;67396;42.664;23.382;2023-04-28T01:23:28;7.15;;;3.28;;
78148;SDS011;67396;42.664;23.382;2023-04-28T01:25:54;7.70;;;3.85;;
78148;SDS011;67396;42.664;23.382;2023-04-28T01:28:19;5.68;;;3.65;;
78148;SDS011;67396;42.664;23.382;2023-04-28T01:30:44;6.55;;;3.38;;
78148;SDS011;67396;42.664;23.382;2023-04-28T01:33:10;9.20;;;3.25;;
78148;SDS011;67396;42.664;23.382;2023-04-28T01:35:35;6.00;;;3.50;;
78148;SDS011;67396;42.664;23.382;2023-04-28T01:38:19;7.65;;;3.65;;
78148;SDS011;67396;42.664;23.382;2023-04-28T01:40:44;9.07;;;3.67;;
78148;SDS011;67396;42.664;23.382;2023-04-28T01:43:10;8.00;;;3.72;;
78148;SDS011;67396;42.664;23.382;2023-04-28T01:45:35;6.50;;;3.90;;
78148;SDS011;67396;42.664;23.382;2023-04-28T01:48:01;5.57;;;3.50;;
78148;SDS011;67396;42.664;23.382;2023-04-28T01:50:26;5.00;;;3.08;;
78148;SDS011;67396;42.664;23.382;2023-04-28T01:52:51;8.90;;;3.83;;
78148;SDS011;67396;42.664;23.382;2023-04-28T01:55:17;8.18;;;3.70;;
78148;SDS011;67396;42.664;23.382;2023-04-28T01:57:42;5.75;;;3.42;;
78148;SDS011;67396;42.664;23.382;2023-04-28T02:00:07;8.40;;;3.83;;
78148;SDS011;67396;42.664;23.382;2023-04-28T02:02:33;6.55;;;3.45;;
78148;SDS011;67396;42.664;23.382;2023-04-28T02:04:59;6.22;;;3.72;;
78148;SDS011;67396;42.664;23.382;2023-04-28T02:07:24;9.00;;;4.35;;
78148;SDS011;67396;42.664;23.382;2023-04-28T02:09:49;7.95;;;3.90;;
78148;SDS011;67396;42.664;23.382;2023-04-28T02:12:15;7.53;;;3.78;;
78148;SDS011;67396;42.664;23.382;2023-04-28T02:14:41;8.32;;;3.55;;
78148;SDS011;67396;42.664;23.382;2023-04-28T02:17:06;9.88;;;3.80;;
78148;SDS011;67396;42.664;23.382;2023-04-28T02:19:32;8.07;;;3.60;;
78148;SDS011;67396;42.664;23.382;2023-04-28T02:21:57;9.45;;;4.00;;
78148;SDS011;67396;42.664;23.382;2023-04-28T02:24:22;6.53;;;3.70;;
78148;SDS011;67396;42.664;23.382;2023-04-28T02:26:48;5.80;;;3.35;;
78148;SDS011;67396;42.664;23.382;2023-04-28T02:29:14;8.45;;;3.53;;
78148;SDS011;67396;42.664;23.382;2023-04-28T02:31:40;7.07;;;3.83;;
78148;SDS011;67396;42.664;23.382;2023-04-28T02:34:05;5.90;;;3.53;;
78148;SDS011;67396;42.664;23.382;2023-04-28T02:36:31;8.18;;;3.60;;
78148;SDS011;67396;42.664;23.382;2023-04-28T02:38:57;5.72;;;3.90;;
78148;SDS011;67396;42.664;23.382;2023-04-28T02:41:22;9.80;;;4.72;;
78148;SDS011;67396;42.664;23.382;2023-04-28T02:43:48;9.05;;;4.50;;
78148;SDS011;67396;42.664;23.382;2023-04-28T02:46:13;11.50;;;4.50;;
78148;SDS011;67396;42.664;23.382;2023-04-28T02:48:39;10.43;;;3.45;;
78148;SDS011;67396;42.664;23.382;2023-04-28T02:51:05;8.30;;;3.80;;
78148;SDS011;67396;42.664;23.382;2023-04-28T02:53:30;9.15;;;3.30;;
78148;SDS011;67396;42.664;23.382;2023-04-28T02:55:56;6.20;;;3.75;;
78148;SDS011;67396;42.664;23.382;2023-04-28T02:58:22;4.97;;;3.38;;
78148;SDS011;67396;42.664;23.382;2023-04-28T03:00:47;7.53;;;3.53;;
78148;SDS011;67396;42.664;23.382;2023-04-28T03:03:13;7.80;;;4.13;;
78148;SDS011;67396;42.664;23.382;2023-04-28T03:05:38;9.35;;;3.63;;
78148;SDS011;67396;42.664;23.382;2023-04-28T03:08:04;7.45;;;4.28;;
78148;SDS011;67396;42.664;23.382;2023-04-28T03:10:30;7.35;;;4.30;;
78148;SDS011;67396;42.664;23.382;2023-04-28T03:12:55;6.32;;;3.58;;
78148;SDS011;67396;42.664;23.382;2023-04-28T03:15:21;6.30;;;3.38;;
78148;SDS011;67396;42.664;23.382;2023-04-28T03:17:46;9.07;;;3.70;;
78148;SDS011;67396;42.664;23.382;2023-04-28T03:20:12;6.03;;;3.58;;
78148;SDS011;67396;42.664;23.382;2023-04-28T03:22:37;5.35;;;3.60;;
78148;SDS011;67396;42.664;23.382;2023-04-28T03:25:02;9.23;;;3.53;;
78148;SDS011;67396;42.664;23.382;2023-04-28T03:27:29;11.45;;;4.05;;
78148;SDS011;67396;42.664;23.382;2023-04-28T03:29:55;6.18;;;3.53;;
78148;SDS011;67396;42.664;23.382;2023-04-28T03:32:20;8.80;;;3.40;;
78148;SDS011;67396;42.664;23.382;2023-04-28T03:34:46;12.27;;;3.70;;
78148;SDS011;67396;42.664;23.382;2023-04-28T03:37:11;8.95;;;4.00;;
78148;SDS011;67396;42.664;23.382;2023-04-28T03:39:37;9.20;;;3.95;;
78148;SDS011;67396;42.664;23.382;2023-04-28T03:42:03;7.25;;;3.60;;
78148;SDS011;67396;42.664;23.382;2023-04-28T03:44:28;8.65;;;4.30;;
78148;SDS011;67396;42.664;23.382;2023-04-28T03:46:54;7.70;;;3.63;;
78148;SDS011;67396;42.664;23.382;2023-04-28T03:49:19;6.43;;;4.00;;
78148;SDS011;67396;42.664;23.382;2023-04-28T03:51:45;10.63;;;4.00;;
78148;SDS011;67396;42.664;23.382;2023-04-28T03:54:10;8.63;;;3.83;;
78148;SDS011;67396;42.664;23.382;2023-04-28T03:56:36;6.18;;;3.33;;
78148;SDS011;67396;42.664;23.382;2023-04-28T03:59:01;6.97;;;3.88;;
78148;SDS011;67396;42.664;23.382;2023-04-28T04:01:26;8.75;;;4.10;;
78148;SDS011;67396;42.664;23.382;2023-04-28T04:03:52;9.40;;;4.30;;
78148;SDS011;67396;42.664;23.382;2023-04-28T04:06:17;4.15;;;3.47;;
78148;SDS011;67396;42.664;23.382;2023-04-28T04:08:43;11.15;;;4.20;;
78148;SDS011;67396;42.664;23.382;2023-04-28T04:11:09;9.73;;;3.92;;
78148;SDS011;67396;42.664;23.382;2023-04-28T04:13:37;7.90;;;3.78;;
78148;SDS011;67396;42.664;23.382;2023-04-28T04:16:02;6.82;;;3.95;;
78148;SDS011;67396;42.664;23.382;2023-04-28T04:18:28;6.82;;;3.15;;
78148;SDS011;67396;42.664;23.382;2023-04-28T04:20:53;15.05;;;4.55;;
78148;SDS011;67396;42.664;23.382;2023-04-28T04:23:20;9.10;;;3.88;;
78148;SDS011;67396;42.664;23.382;2023-04-28T04:25:46;11.63;;;3.97;;
78148;SDS011;67396;42.664;23.382;2023-04-28T04:28:11;6.43;;;3.78;;
78148;SDS011;67396;42.664;23.382;2023-04-28T04:30:37;6.80;;;3.30;;
78148;SDS011;67396;42.664;23.382;2023-04-28T04:33:02;11.07;;;3.63;;
78148;SDS011;67396;42.664;23.382;2023-04-28T04:35:28;5.15;;;3.67;;
78148;SDS011;67396;42.664;23.382;2023-04-28T04:37:54;6.57;;;4.30;;
78148;SDS011;67396;42.664;23.382;2023-04-28T04:40:19;7.07;;;3.40;;
78148;SDS011;67396;42.664;23.382;2023-04-28T04:42:44;12.10;;;4.13;;
78148;SDS011;67396;42.664;23.382;2023-04-28T04:45:10;8.98;;;3.65;;
78148;SDS011;67396;42.664;23.382;2023-04-28T04:47:36;8.50;;;4.10;;
78148;SDS011;67396;42.664;23.382;2023-04-28T04:50:01;9.23;;;3.75;;
78148;SDS011;67396;42.664;23.382;2023-04-28T04:52:27;23.52;;;10.05;;
78148;SDS011;67396;42.664;23.382;2023-04-28T04:54:53;14.05;;;6.38;;
78148;SDS011;67396;42.664;23.382;2023-04-28T04:57:20;14.10;;;5.47;;
78148;SDS011;67396;42.664;23.382;2023-04-28T04:59:45;26.92;;;10.93;;
78148;SDS011;67396;42.664;23.382;2023-04-28T05:02:11;18.02;;;8.15;;
78148;SDS011;67396;42.664;23.382;2023-04-28T05:04:36;20.17;;;9.40;;
78148;SDS011;67396;42.664;23.382;2023-04-28T05:07:02;23.35;;;7.90;;
78148;SDS011;67396;42.664;23.382;2023-04-28T05:09:27;12.13;;;4.72;;
78148;SDS011;67396;42.664;23.382;2023-04-28T05:11:55;9.75;;;4.95;;
78148;SDS011;67396;42.664;23.382;2023-04-28T05:14:20;13.13;;;4.57;;
78148;SDS011;67396;42.664;23.382;2023-04-28T05:16:46;9.65;;;3.90;;
78148;SDS011;67396;42.664;23.382;2023-04-28T05:19:12;9.93;;;4.60;;
78148;SDS011;67396;42.664;23.382;2023-04-28T05:21:37;30.15;;;12.65;;
78148;SDS011;67396;42.664;23.382;2023-04-28T05:24:03;35.42;;;15.40;;
78148;SDS011;67396;42.664;23.382;2023-04-28T05:26:28;29.08;;;12.75;;
78148;SDS011;67396;42.664;23.382;2023-04-28T05:28:54;10.50;;;5.78;;
78148;SDS011;67396;42.664;23.382;2023-04-28T05:31:19;13.57;;;5.95;;
78148;SDS011;67396;42.664;23.382;2023-04-28T05:33:44;13.73;;;5.28;;
78148;SDS011;67396;42.664;23.382;2023-04-28T05:36:10;10.82;;;3.80;;
78148;SDS011;67396;42.664;23.382;2023-04-28T05:38:35;12.82;;;3.85;;
78148;SDS011;67396;42.664;23.382;2023-04-28T05:41:01;6.93;;;4.63;;
78148;SDS011;67396;42.664;23.382;2023-04-28T05:43:27;9.10;;;4.32;;
78148;SDS011;67396;42.664;23.382;2023-04-28T05:45:52;8.55;;;4.15;;
78148;SDS011;67396;42.664;23.382;2023-04-28T05:48:17;8.25;;;4.30;;
78148;SDS011;67396;42.664;23.382;2023-04-28T05:50:43;8.02;;;3.90;;
78148;SDS011;67396;42.664;23.382;2023-04-28T05:53:09;10.50;;;4.40;;
78148;SDS011;67396;42.664;23.382;2023-04-28T05:55:34;9.15;;;4.07;;
78148;SDS011;67396;42.664;23.382;2023-04-28T05:58:00;8.45;;;4.32;;
78148;SDS011;67396;42.664;23.382;2023-04-28T06:00:26;10.38;;;3.88;;
78148;SDS011;67396;42.664;23.382;2023-04-28T06:02:52;6.00;;;5.03;;
78148;SDS011;67396;42.664;23.382;2023-04-28T06:05:17;8.43;;;4.38;;
78148;SDS011;67396;42.664;23.382;2023-04-28T06:07:46;8.95;;;4.88;;
78148;SDS011;67396;42.664;23.382;2023-04-28T06:10:11;6.25;;;4.25;;
78148;SDS011;67396;42.664;23.382;2023-04-28T06:12:37;9.50;;;5.07;;
78148;SDS011;67396;42.664;23.382;2023-04-28T06:15:03;12.13;;;4.75;;
78148;SDS011;67396;42.664;23.382;2023-04-28T06:17:32;9.43;;;3.83;;
78148;SDS011;67396;42.664;23.382;2023-04-28T06:19:58;18.50;;;4.18;;
78148;SDS011;67396;42.664;23.382;2023-04-28T06:22:24;10.05;;;4.05;;
78148;SDS011;67396;42.664;23.382;2023-04-28T06:24:50;11.57;;;4.22;;
78148;SDS011;67396;42.664;23.382;2023-04-28T06:27:16;6.72;;;4.30;;
78148;SDS011;67396;42.664;23.382;2023-04-28T06:29:41;10.10;;;4.28;;
78148;SDS011;67396;42.664;23.382;2023-04-28T06:32:07;12.50;;;4.13;;
78148;SDS011;67396;42.664;23.382;2023-04-28T06:34:33;14.10;;;4.70;;
78148;SDS011;67396;42.664;23.382;2023-04-28T06:36:59;6.70;;;4.18;;
78148;SDS011;67396;42.664;23.382;2023-04-28T06:39:25;8.38;;;4.72;;
78148;SDS011;67396;42.664;23.382;2023-04-28T06:41:50;8.02;;;4.35;;
78148;SDS011;67396;42.664;23.382;2023-04-28T06:44:16;10.27;;;4.32;;
78148;SDS011;67396;42.664;23.382;2023-04-28T06:46:41;8.75;;;3.88;;
78148;SDS011;67396;42.664;23.382;2023-04-28T06:49:07;8.23;;;4.32;;
78148;SDS011;67396;42.664;23.382;2023-04-28T06:51:32;12.02;;;5.13;;
78148;SDS011;67396;42.664;23.382;2023-04-28T06:53:58;11.93;;;4.03;;
78148;SDS011;67396;42.664;23.382;2023-04-28T06:56:24;8.10;;;4.82;;
78148;SDS011;67396;42.664;23.382;2023-04-28T06:58:49;11.23;;;5.20;;
78148;SDS011;67396;42.664;23.382;2023-04-28T07:01:15;10.95;;;4.53;;
78148;SDS011;67396;42.664;23.382;2023-04-28T07:03:41;15.38;;;5.32;;
78148;SDS011;67396;42.664;23.382;2023-04-28T07:06:07;19.27;;;4.57;;
78148;SDS011;67396;42.664;23.382;2023-04-28T07:08:33;8.20;;;4.38;;
78148;SDS011;67396;42.664;23.382;2023-04-28T07:10:59;10.45;;;4.03;;
78148;SDS011;67396;42.664;23.382;2023-04-28T07:13:28;6.57;;;3.70;;
78148;SDS011;67396;42.664;23.382;2023-04-28T07:15:57;10.80;;;4.15;;
78148;SDS011;67396;42.664;23.382;2023-04-28T07:18:23;11.68;;;3.95;;
78148;SDS011;67396;42.664;23.382;2023-04-28T07:20:48;9.35;;;4.00;;
78148;SDS011;67396;42.664;23.382;2023-04-28T07:23:14;8.75;;;3.78;;
78148;SDS011;67396;42.664;23.382;2023-04-28T07:25:40;10.07;;;3.75;;
78148;SDS011;67396;42.664;23.382;2023-04-28T07:28:05;6.78;;;3.10;;
78148;SDS011;67396;42.664;23.382;2023-04-28T07:30:32;7.68;;;3.58;;
78148;SDS011;67396;42.664;23.382;2023-04-28T07:32:58;9.50;;;3.65;;
78148;SDS011;67396;42.664;23.382;2023-04-28T07:35:23;8.10;;;3.60;;
78148;SDS011;67396;42.664;23.382;2023-04-28T07:37:49;6.60;;;3.88;;
78148;SDS011;67396;42.664;23.382;2023-04-28T07:40:18;9.73;;;3.40;;
78148;SDS011;67396;42.664;23.382;2023-04-28T07:42:43;7.10;;;3.45;;
78148;SDS011;67396;42.664;23.382;2023-04-28T07:45:09;6.20;;;4.15;;
78148;SDS011;67396;42.664;23.382;2023-04-28T07:47:35;6.90;;;3.90;;
78148;SDS011;67396;42.664;23.382;2023-04-28T07:50:01;7.78;;;3.33;;
78148;SDS011;67396;42.664;23.382;2023-04-28T07:52:32;9.35;;;4.10;;
78148;SDS011;67396;42.664;23.382;2023-04-28T07:54:58;5.97;;;3.22;;
78148;SDS011;67396;42.664;23.382;2023-04-28T07:57:24;8.60;;;4.10;;
78148;SDS011;67396;42.664;23.382;2023-04-28T07:59:50;8.48;;;3.50;;
78148;SDS011;67396;42.664;23.382;2023-04-28T08:02:16;8.38;;;4.10;;
78148;SDS011;67396;42.664;23.382;2023-04-28T08:04:43;8.57;;;4.00;;
78148;SDS011;67396;42.664;23.382;2023-04-28T08:07:08;6.78;;;3.88;;
78148;SDS011;67396;42.664;23.382;2023-04-28T08:09:34;5.43;;;3.85;;
78148;SDS011;67396;42.664;23.382;2023-04-28T08:12:00;10.57;;;4.22;;
78148;SDS011;67396;42.664;23.382;2023-04-28T08:14:26;6.72;;;4.30;;
78148;SDS011;67396;42.664;23.382;2023-04-28T08:16:52;8.85;;;3.42;;
78148;SDS011;67396;42.664;23.382;2023-04-28T08:19:17;11.60;;;4.00;;
78148;SDS011;67396;42.664;23.382;2023-04-28T08:21:43;10.40;;;3.95;;
78148;SDS011;67396;42.664;23.382;2023-04-28T08:24:08;9.27;;;3.80;;
78148;SDS011;67396;42.664;23.382;2023-04-28T08:26:35;5.20;;;3.50;;
78148;SDS011;67396;42.664;23.382;2023-04-28T08:29:01;8.95;;;3.40;;
78148;SDS011;67396;42.664;23.382;2023-04-28T08:31:27;10.18;;;3.85;;
78148;SDS011;67396;42.664;23.382;2023-04-28T08:33:52;8.32;;;3.67;;
78148;SDS011;67396;42.664;23.382;2023-04-28T08:36:18;9.93;;;4.50;;
78148;SDS011;67396;42.664;23.382;2023-04-28T08:38:43;10.50;;;3.92;;
78148;SDS011;67396;42.664;23.382;2023-04-28T08:41:11;10.88;;;3.70;;
78148;SDS011;67396;42.664;23.382;2023-04-28T08:43:38;10.38;;;4.28;;
78148;SDS011;67396;42.664;23.382;2023-04-28T08:46:06;9.85;;;3.78;;
78148;SDS011;67396;42.664;23.382;2023-04-28T08:48:42;9.02;;;3.40;;
78148;SDS011;67396;42.664;23.382;2023-04-28T08:51:15;12.63;;;3.85;;
78148;SDS011;67396;42.664;23.382;2023-04-28T08:53:50;8.25;;;3.75;;
78148;SDS011;67396;42.664;23.382;2023-04-28T08:56:17;7.18;;;3.60;;
78148;SDS011;67396;42.664;23.382;2023-04-28T08:58:46;7.72;;;4.00;;
78148;SDS011;67396;42.664;23.382;2023-04-28T09:01:13;7.72;;;3.28;;
78148;SDS011;67396;42.664;23.382;2023-04-28T09:03:38;11.27;;;3.80;;
78148;SDS011;67396;42.664;23.382;2023-04-28T09:06:04;9.13;;;3.75;;
78148;SDS011;67396;42.664;23.382;2023-04-28T09:08:29;10.38;;;5.55;;
78148;SDS011;67396;42.664;23.382;2023-04-28T09:11:07;6.68;;;3.60;;
78148;SDS011;67396;42.664;23.382;2023-04-28T09:13:35;8.18;;;3.58;;
78148;SDS011;67396;42.664;23.382;2023-04-28T09:16:01;9.65;;;3.28;;
78148;SDS011;67396;42.664;23.382;2023-04-28T09:18:30;6.25;;;3.35;;
78148;SDS011;67396;42.664;23.382;2023-04-28T09:23:29;9.13;;;3.72;;
78148;SDS011;67396;42.664;23.382;2023-04-28T09:25:55;10.07;;;5.30;;
78148;SDS011;67396;42.664;23.382;2023-04-28T09:28:28;9.02;;;4.65;;
78148;SDS011;67396;42.664;23.382;2023-04-28T09:30:54;9.45;;;4.15;;
78148;SDS011;67396;42.664;23.382;2023-04-28T09:33:21;8.70;;;3.13;;
78148;SDS011;67396;42.664;23.382;2023-04-28T09:35:47;5.13;;;2.75;;
78148;SDS011;67396;42.664;23.382;2023-04-28T09:38:15;4.25;;;3.25;;
78148;SDS011;67396;42.664;23.382;2023-04-28T09:40:49;5.13;;;2.88;;
78148;SDS011;67396;42.664;23.382;2023-04-28T09:43:29;9.25;;;3.42;;
78148;SDS011;67396;42.664;23.382;2023-04-28T09:45:57;6.43;;;3.05;;
78148;SDS011;67396;42.664;23.382;2023-04-28T09:48:33;5.40;;;3.13;;
78148;SDS011;67396;42.664;23.382;2023-04-28T09:51:01;6.13;;;2.90;;
78148;SDS011;67396;42.664;23.382;2023-04-28T09:53:27;5.85;;;3.30;;
78148;SDS011;67396;42.664;23.382;2023-04-28T09:55:54;6.10;;;3.28;;
78148;SDS011;67396;42.664;23.382;2023-04-28T09:58:22;9.57;;;3.40;;
78148;SDS011;67396;42.664;23.382;2023-04-28T10:00:53;6.20;;;3.33;;
78148;SDS011;67396;42.664;23.382;2023-04-28T10:03:23;9.80;;;3.97;;
78148;SDS011;67396;42.664;23.382;2023-04-28T10:05:50;6.80;;;3.88;;
78148;SDS011;67396;42.664;23.382;2023-04-28T10:08:17;10.43;;;3.35;;
78148;SDS011;67396;42.664;23.382;2023-04-28T10:10:44;8.13;;;3.20;;
78148;SDS011;67396;42.664;23.382;2023-04-28T10:13:10;4.13;;;2.70;;
78148;SDS011;67396;42.664;23.382;2023-04-28T10:15:36;6.45;;;2.72;;
78148;SDS011;67396;42.664;23.382;2023-04-28T10:18:03;4.75;;;2.97;;
78148;SDS011;67396;42.664;23.382;2023-04-28T10:20:30;6.75;;;2.90;;
78148;SDS011;67396;42.664;23.382;2023-04-28T10:25:43;6.95;;;2.67;;
78148;SDS011;67396;42.664;23.382;2023-04-28T10:28:13;7.43;;;2.58;;
78148;SDS011;67396;42.664;23.382;2023-04-28T10:30:40;7.18;;;2.88;;
78148;SDS011;67396;42.664;23.382;2023-04-28T10:35:44;4.50;;;2.90;;
78148;SDS011;67396;42.664;23.382;2023-04-28T10:40:47;9.75;;;3.33;;
78148;SDS011;67396;42.664;23.382;2023-04-28T10:43:31;8.25;;;3.25;;
78148;SDS011;67396;42.664;23.382;2023-04-28T10:45:58;5.07;;;2.80;;
78148;SDS011;67396;42.664;23.382;2023-04-28T10:56:19;4.85;;;2.67;;
78148;SDS011;67396;42.664;23.382;2023-04-28T10:58:46;9.98;;;2.53;;
78148;SDS011;67396;42.664;23.382;2023-04-28T11:06:20;5.57;;;2.38;;
78148;SDS011;67396;42.664;23.382;2023-04-28T11:08:54;6.68;;;2.83;;
78148;SDS011;67396;42.664;23.382;2023-04-28T11:13:49;8.43;;;2.28;;
78148;SDS011;67396;42.664;23.382;2023-04-28T11:16:17;5.90;;;2.58;;
78148;SDS011;67396;42.664;23.382;2023-04-28T11:18:56;5.43;;;2.70;;
78148;SDS011;67396;42.664;23.382;2023-04-28T11:21:24;11.13;;;2.60;;
78148;SDS011;67396;42.664;23.382;2023-04-28T11:23:52;5.72;;;2.22;;
78148;SDS011;67396;42.664;23.382;2023-04-28T11:26:18;7.35;;;2.83;;
78148;SDS011;67396;42.664;23.382;2023-04-28T11:28:53;4.03;;;2.20;;
78148;SDS011;67396;42.664;23.382;2023-04-28T11:31:21;3.90;;;2.15;;
78148;SDS011;67396;42.664;23.382;2023-04-28T11:33:49;4.82;;;2.20;;
78148;SDS011;67396;42.664;23.382;2023-04-28T11:36:25;4.53;;;2.30;;
78148;SDS011;67396;42.664;23.382;2023-04-28T11:38:53;6.32;;;2.13;;
78148;SDS011;67396;42.664;23.382;2023-04-28T11:41:21;4.72;;;2.30;;
78148;SDS011;67396;42.664;23.382;2023-04-28T11:43:47;6.13;;;2.78;;
78148;SDS011;67396;42.664;23.382;2023-04-28T11:46:19;6.13;;;2.58;;
78148;SDS011;67396;42.664;23.382;2023-04-28T11:48:46;5.72;;;2.58;;
78148;SDS011;67396;42.664;23.382;2023-04-28T11:51:32;18.48;;;4.70;;
78148;SDS011;67396;42.664;23.382;2023-04-28T11:53:59;12.82;;;3.08;;
78148;SDS011;67396;42.664;23.382;2023-04-28T11:56:26;5.63;;;2.53;;
78148;SDS011;67396;42.664;23.382;2023-04-28T12:01:46;5.18;;;2.22;;
78148;SDS011;67396;42.664;23.382;2023-04-28T12:04:35;9.50;;;3.22;;
78148;SDS011;67396;42.664;23.382;2023-04-28T12:09:29;6.72;;;2.38;;
78148;SDS011;67396;42.664;23.382;2023-04-28T12:11:56;4.68;;;2.10;;
78148;SDS011;67396;42.664;23.382;2023-04-28T12:14:24;6.10;;;2.40;;
78148;SDS011;67396;42.664;23.382;2023-04-28T12:16:49;4.63;;;2.63;;
78148;SDS011;67396;42.664;23.382;2023-04-28T12:19:16;5.97;;;2.40;;
78148;SDS011;67396;42.664;23.382;2023-04-28T12:21:43;6.68;;;2.28;;
78148;SDS011;67396;42.664;23.382;2023-04-28T12:24:21;6.40;;;2.75;;
78148;SDS011;67396;42.664;23.382;2023-04-28T12:26:47;4.95;;;2.67;;
78148;SDS011;67396;42.664;23.382;2023-04-28T12:32:07;7.88;;;3.03;;
78148;SDS011;67396;42.664;23.382;2023-04-28T12:34:34;9.98;;;3.22;;
78148;SDS011;67396;42.664;23.382;2023-04-28T12:37:04;5.45;;;2.50;;
78148;SDS011;67396;42.664;23.382;2023-04-28T12:39:33;4.97;;;2.78;;
78148;SDS011;67396;42.664;23.382;2023-04-28T12:42:03;3.42;;;2.30;;
78148;SDS011;67396;42.664;23.382;2023-04-28T12:44:35;5.88;;;3.75;;
78148;SDS011;67396;42.664;23.382;2023-04-28T12:47:10;8.00;;;3.17;;
78148;SDS011;67396;42.664;23.382;2023-04-28T12:49:36;8.50;;;2.97;;
78148;SDS011;67396;42.664;23.382;2023-04-28T12:52:20;22.90;;;5.30;;
78148;SDS011;67396;42.664;23.382;2023-04-28T12:54:46;12.70;;;4.82;;
78148;SDS011;67396;42.664;23.382;2023-04-28T12:57:13;9.05;;;3.42;;
78148;SDS011;67396;42.664;23.382;2023-04-28T12:59:39;5.82;;;2.92;;
78148;SDS011;67396;42.664;23.382;2023-04-28T13:02:17;8.30;;;2.65;;
78148;SDS011;67396;42.664;23.382;2023-04-28T13:04:46;5.07;;;2.53;;
78148;SDS011;67396;42.664;23.382;2023-04-28T13:07:15;10.68;;;2.90;;
78148;SDS011;67396;42.664;23.382;2023-04-28T13:09:40;6.75;;;2.85;;
78148;SDS011;67396;42.664;23.382;2023-04-28T13:12:10;11.77;;;3.28;;
78148;SDS011;67396;42.664;23.382;2023-04-28T13:14:43;2.92;;;1.90;;
78148;SDS011;67396;42.664;23.382;2023-04-28T13:17:11;6.20;;;2.83;;
78148;SDS011;67396;42.664;23.382;2023-04-28T13:19:36;3.88;;;2.40;;
78148;SDS011;67396;42.664;23.382;2023-04-28T13:22:03;3.40;;;2.22;;
78148;SDS011;67396;42.664;23.382;2023-04-28T13:24:33;7.32;;;2.65;;
78148;SDS011;67396;42.664;23.382;2023-04-28T13:26:59;5.95;;;2.53;;
78148;SDS011;67396;42.664;23.382;2023-04-28T13:29:26;5.90;;;2.58;;
78148;SDS011;67396;42.664;23.382;2023-04-28T13:31:52;6.32;;;2.63;;
78148;SDS011;67396;42.664;23.382;2023-04-28T13:34:18;3.08;;;2.03;;
78148;SDS011;67396;42.664;23.382;2023-04-28T13:36:43;6.55;;;2.50;;
78148;SDS011;67396;42.664;23.382;2023-04-28T13:39:09;6.50;;;4.03;;
78148;SDS011;67396;42.664;23.382;2023-04-28T13:41:36;5.90;;;2.30;;
78148;SDS011;67396;42.664;23.382;2023-04-28T13:44:01;7.70;;;3.67;;
78148;SDS011;67396;42.664;23.382;2023-04-28T13:46:27;5.95;;;3.05;;
78148;SDS011;67396;42.664;23.382;2023-04-28T13:48:53;7.00;;;2.88;;
78148;SDS011;67396;42.664;23.382;2023-04-28T13:51:18;8.45;;;2.50;;
78148;SDS011;67396;42.664;23.382;2023-04-28T13:53:44;5.78;;;3.20;;
78148;SDS011;67396;42.664;23.382;2023-04-28T13:56:09;6.38;;;2.33;;
78148;SDS011;67396;42.664;23.382;2023-04-28T13:58:35;5.53;;;3.17;;
78148;SDS011;67396;42.664;23.382;2023-04-28T14:01:01;5.00;;;2.65;;
78148;SDS011;67396;42.664;23.382;2023-04-28T14:03:30;9.43;;;3.42;;
78148;SDS011;67396;42.664;23.382;2023-04-28T14:05:56;5.72;;;2.67;;
78148;SDS011;67396;42.664;23.382;2023-04-28T14:08:23;7.15;;;2.35;;
78148;SDS011;67396;42.664;23.382;2023-04-28T14:10:50;6.50;;;2.53;;
78148;SDS011;67396;42.664;23.382;2023-04-28T14:13:27;3.78;;;2.38;;
78148;SDS011;67396;42.664;23.382;2023-04-28T14:19:03;12.98;;;5.50;;
78148;SDS011;67396;42.664;23.382;2023-04-28T14:21:28;6.78;;;2.55;;
78148;SDS011;67396;42.664;23.382;2023-04-28T14:26:47;4.07;;;2.65;;
78148;SDS011;67396;42.664;23.382;2023-04-28T14:29:13;9.57;;;2.45;;
78148;SDS011;67396;42.664;23.382;2023-04-28T14:31:39;4.35;;;2.33;;
78148;SDS011;67396;42.664;23.382;2023-04-28T14:34:07;4.80;;;2.30;;
78148;SDS011;67396;42.664;23.382;2023-04-28T14:36:33;6.20;;;2.60;;
78148;SDS011;67396;42.664;23.382;2023-04-28T14:38:58;8.38;;;2.70;;
78148;SDS011;67396;42.664;23.382;2023-04-28T14:41:24;5.43;;;2.50;;
78148;SDS011;67396;42.664;23.382;2023-04-28T14:43:50;9.30;;;3.10;;
78148;SDS011;67396;42.664;23.382;2023-04-28T14:46:15;18.77;;;3.08;;
78148;SDS011;67396;42.664;23.382;2023-04-28T14:48:49;7.20;;;2.88;;
78148;SDS011;67396;42.664;23.382;2023-04-28T14:51:19;13.05;;;2.85;;
78148;SDS011;67396;42.664;23.382;2023-04-28T14:53:48;4.78;;;2.28;;
78148;SDS011;67396;42.664;23.382;2023-04-28T14:56:14;11.98;;;2.40;;
78148;SDS011;67396;42.664;23.382;2023-04-28T14:58:40;7.38;;;2.40;;
78148;SDS011;67396;42.664;23.382;2023-04-28T15:01:06;5.40;;;2.40;;
78148;SDS011;67396;42.664;23.382;2023-04-28T15:03:31;6.95;;;2.15;;
78148;SDS011;67396;42.664;23.382;2023-04-28T15:05:57;6.43;;;2.40;;
78148;SDS011;67396;42.664;23.382;2023-04-28T15:08:22;5.10;;;2.50;;